CheckWX is a tool to help pilots better visualize weather data.  It is not intended as a substitute for an official pre-flight weather briefing.

00:59:44 UTC

GVAC METAR
Amílcar Cabral International Airport
Espargos, Cape Verde
Current

60 mins ago

GVAC 250000Z 05008KT 9999 BKN014 22/18 Q1016 NOSIG
Observed
May-25 @ 00:00 UTC
Wind
  • 050° at 8 KTS
Visibility
10,000+ meters
Flight Rules
MVFR
Cloud Levels
  • Broken at 1,400' AGL
Temperature
22°C / 72°F
Dewpoint
18°C / 64°F
Humidity
78%
Altimeter
30" Hg
Pressure
1015.92 hPa
Previous

2 hours ago

GVAC 242300Z 05010KT 9999 BKN014 22/17 Q1015 NOSIG
Observed
May-24 @ 23:00 UTC
Wind
  • 050° at 10 KTS
Visibility
10,000+ meters
Flight Rules
MVFR
Cloud Levels
  • Broken at 1,400' AGL
Temperature
22°C / 72°F
Dewpoint
17°C / 63°F
Humidity
73%
Altimeter
29.97" Hg
Pressure
1014.92 hPa
Previous

3 hours ago

GVAC 242200Z 05010KT 9999 BKN014 22/17 Q1015 NOSIG
Observed
May-24 @ 22:00 UTC
Wind
  • 050° at 10 KTS
Visibility
10,000+ meters
Flight Rules
MVFR
Cloud Levels
  • Broken at 1,400' AGL
Temperature
22°C / 72°F
Dewpoint
17°C / 63°F
Humidity
73%
Altimeter
29.97" Hg
Pressure
1014.92 hPa